Time;durP1;ratioP1;P1;durP2;ratioP2;P2;SDS_P1;SDS_P2;PMS_P1;PMS_P2;Temp;Humidity;BMP_temperature;BMP_pressure;BME280_temperature;BME280_humidity;BME280_pressure;Samples;Min_cycle;Max_cycle;Signal;HPM_P1;HPM_P2
2024/04/25 00:01:19;;;;;;;2.33;2.13;;;15.30;69.00;;;;;;4220907;27;20021;-38
2024/04/25 00:04:02;;;;;;;2.08;1.52;;;15.20;68.90;;;;;;4207540;27;20099;-39
2024/04/25 00:06:44;;;;;;;1.42;1.33;;;15.20;69.10;;;;;;4194906;27;20025;-39
2024/04/25 00:09:30;;;;;;;1.67;1.60;;;15.20;67.60;;;;;;4194341;27;20025;-39
2024/04/25 00:12:12;;;;;;;1.65;1.55;;;15.20;67.80;;;;;;4194559;27;20338;-39
2024/04/25 00:14:55;;;;;;;1.35;1.30;;;15.10;67.60;;;;;;4217695;27;20021;-39
2024/04/25 00:17:39;;;;;;;1.35;1.10;;;15.10;67.80;;;;;;4214193;27;20054;-39
2024/04/25 00:20:23;;;;;;;0.90;0.90;;;15.10;67.70;;;;;;4194287;27;20346;-39
2024/04/25 00:23:05;;;;;;;1.23;1.13;;;15.10;67.70;;;;;;4194122;27;20402;-38
2024/04/25 00:25:51;;;;;;;0.93;0.93;;;15.10;68.10;;;;;;4194958;27;20024;-38
2024/04/25 00:28:35;;;;;;;0.90;0.90;;;15.10;68.70;;;;;;4194262;27;20029;-39
2024/04/25 00:31:20;;;;;;;1.80;1.00;;;15.10;69.40;;;;;;4199452;27;20029;-39
2024/04/25 00:34:02;;;;;;;0.70;0.70;;;15.10;69.70;;;;;;4222806;27;20023;-38
2024/04/25 00:36:45;;;;;;;2.40;1.02;;;15.00;69.50;;;;;;4222398;27;20020;-39
2024/04/25 00:39:28;;;;;;;0.73;0.73;;;15.10;69.60;;;;;;4239505;27;20021;-38
2024/04/25 00:42:21;;;;;;;1.85;0.90;;;15.00;70.90;;;;;;4231595;27;20025;-38
2024/04/25 00:45:04;;;;;;;1.80;0.85;;;15.00;70.10;;;;;;4196097;27;20441;-39
2024/04/25 00:47:47;;;;;;;0.98;0.95;;;15.00;70.50;;;;;;4205918;27;20446;-38
2024/04/25 00:50:30;;;;;;;0.65;0.65;;;15.00;70.70;;;;;;4222375;27;20019;-38
2024/04/25 00:53:13;;;;;;;1.40;0.80;;;15.00;70.70;;;;;;4196418;27;20024;-39
2024/04/25 00:55:58;;;;;;;0.90;0.90;;;15.00;71.00;;;;;;4196332;27;20025;-39
2024/04/25 00:58:46;;;;;;;1.50;0.90;;;15.00;71.00;;;;;;4198022;27;20026;-39
2024/04/25 01:01:31;;;;;;;1.20;1.10;;;15.00;71.20;;;;;;4196356;27;20303;-39
2024/04/25 01:04:15;;;;;;;0.90;0.90;;;15.00;71.20;;;;;;4206360;27;20020;-39
2024/04/25 01:07:00;;;;;;;0.90;0.90;;;15.00;71.20;;;;;;4222805;27;20021;-38
2024/04/25 01:09:43;;;;;;;0.85;0.85;;;15.00;71.20;;;;;;4222541;27;20062;-39
2024/04/25 01:12:26;;;;;;;1.35;1.25;;;15.00;71.20;;;;;;4222624;27;20021;-39
2024/04/25 01:15:11;;;;;;;1.48;1.38;;;15.00;71.10;;;;;;4196757;27;20026;-38
2024/04/25 01:17:54;;;;;;;2.65;1.40;;;15.00;71.30;;;;;;4195900;27;20022;-38
2024/04/25 01:20:37;;;;;;;1.27;1.27;;;15.00;71.30;;;;;;4202011;27;20021;-38
2024/04/25 01:23:20;;;;;;;1.85;1.35;;;15.00;71.40;;;;;;4222074;27;20334;-38
2024/04/25 01:26:06;;;;;;;1.30;1.25;;;15.00;71.50;;;;;;4222079;27;20059;-38
2024/04/25 01:28:50;;;;;;;2.00;1.15;;;15.00;71.60;;;;;;4218651;27;20025;-39
2024/04/25 01:31:34;;;;;;;1.13;0.57;;;15.00;71.80;;;;;;4196247;27;20347;-38
2024/04/25 01:34:18;;;;;;;1.42;0.47;;;15.00;70.50;;;;;;4196024;27;20087;-39
2024/04/25 01:37:01;;;;;;;1.67;0.40;;;15.00;69.80;;;;;;4201040;27;20349;-39
2024/04/25 01:39:44;;;;;;;1.35;0.57;;;14.90;69.40;;;;;;4204405;27;20021;-39
2024/04/25 01:42:30;;;;;;;3.28;0.52;;;14.90;68.80;;;;;;4196116;27;20025;-40
2024/04/25 01:45:13;;;;;;;0.95;0.60;;;14.90;69.10;;;;;;4198430;27;20104;-39
2024/04/25 01:47:55;;;;;;;1.23;0.80;;;14.90;68.10;;;;;;4212500;27;20046;-39
2024/04/25 01:50:38;;;;;;;1.75;0.50;;;14.90;66.90;;;;;;4196188;27;20438;-39
2024/04/25 01:53:21;;;;;;;0.40;0.40;;;14.90;66.80;;;;;;4198871;27;20533;-39
2024/04/25 01:56:04;;;;;;;0.65;0.50;;;14.80;66.70;;;;;;4202311;27;20021;-39
2024/04/25 01:58:52;;;;;;;0.52;0.30;;;14.80;67.40;;;;;;4195495;27;20087;-50
2024/04/25 02:01:35;;;;;;;0.73;0.30;;;14.80;67.10;;;;;;4197764;27;20095;-48
2024/04/25 02:04:18;;;;;;;0.63;0.38;;;14.80;68.80;;;;;;4195795;27;20087;-48
2024/04/25 02:07:01;;;;;;;0.60;0.40;;;14.80;71.00;;;;;;4195930;27;20068;-51
2024/04/25 02:09:44;;;;;;;1.52;0.50;;;14.90;71.90;;;;;;4200837;27;20020;-50
2024/04/25 02:12:27;;;;;;;2.10;0.38;;;15.00;72.40;;;;;;4199399;27;20462;-53
2024/04/25 02:15:12;;;;;;;0.20;0.20;;;15.00;72.50;;;;;;4212422;27;20022;-49
2024/04/25 02:17:55;;;;;;;0.47;0.40;;;15.10;72.50;;;;;;4204989;27;20432;-52
2024/04/25 02:26:35;;;;;;;0.30;0.30;;;15.20;72.30;;;;;;4220329;27;20086;-51
2024/04/25 02:29:19;;;;;;;2.15;0.40;;;15.20;72.30;;;;;;4221665;27;20047;-50
2024/04/25 02:32:04;;;;;;;1.58;0.45;;;15.20;72.10;;;;;;4195515;27;20515;-50
2024/04/25 02:34:47;;;;;;;0.40;0.40;;;15.20;72.00;;;;;;4212898;27;20088;-49
2024/04/25 02:37:30;;;;;;;2.25;0.47;;;15.20;72.10;;;;;;4222268;27;20024;-53
2024/04/25 02:40:13;;;;;;;0.65;0.40;;;15.20;72.00;;;;;;4221622;27;20020;-52
2024/04/25 02:42:56;;;;;;;0.77;0.60;;;15.20;71.90;;;;;;4220649;27;20411;-51
2024/04/25 02:45:38;;;;;;;1.05;0.40;;;15.10;71.70;;;;;;4221001;27;20036;-50
2024/04/25 02:48:21;;;;;;;1.10;0.63;;;15.10;71.80;;;;;;4221256;27;20046;-48
2024/04/25 02:51:04;;;;;;;1.95;0.50;;;15.10;71.80;;;;;;4219087;27;20444;-48
2024/04/25 02:53:45;;;;;;;1.90;1.02;;;15.00;72.80;;;;;;4220926;27;20049;-51
2024/04/25 02:56:28;;;;;;;2.58;0.50;;;15.00;71.90;;;;;;4221347;27;20862;-52
2024/04/25 02:59:08;;;;;;;1.85;0.50;;;15.00;72.50;;;;;;4220829;27;20029;-49
2024/04/25 03:01:50;;;;;;;2.22;1.10;;;15.00;73.10;;;;;;4220864;27;20086;-51
2024/04/25 03:04:33;;;;;;;3.13;0.70;;;15.10;73.10;;;;;;4221445;27;20029;-53
2024/04/25 03:07:17;;;;;;;1.40;0.60;;;15.10;72.80;;;;;;4203802;27;20025;-52
2024/04/25 03:09:57;;;;;;;2.38;0.80;;;15.20;72.80;;;;;;4195363;27;20347;-48
2024/04/25 03:12:40;;;;;;;1.98;0.70;;;15.20;72.70;;;;;;4195335;27;20029;-52
2024/04/25 03:15:23;;;;;;;3.28;0.95;;;15.20;72.80;;;;;;4201658;27;20451;-52
2024/04/25 03:18:03;;;;;;;4.13;0.80;;;15.20;72.80;;;;;;4195125;27;20579;-52
2024/04/25 03:20:50;;;;;;;1.40;1.00;;;15.30;73.00;;;;;;4195370;27;20091;-48
2024/04/25 03:23:31;;;;;;;4.90;0.73;;;15.40;72.90;;;;;;4237052;27;20024;-52
2024/04/25 03:26:14;;;;;;;4.50;0.70;;;15.50;72.70;;;;;;4220927;27;20085;-51
2024/04/25 03:28:54;;;;;;;4.60;0.90;;;15.50;72.50;;;;;;4220670;27;20061;-51
2024/04/25 03:31:37;;;;;;;3.58;1.02;;;15.50;72.20;;;;;;4220116;27;20477;-51
2024/04/25 03:34:17;;;;;;;4.78;0.98;;;15.60;72.20;;;;;;4219340;27;20632;-39
2024/04/25 03:37:03;;;;;;;3.30;1.05;;;15.50;72.10;;;;;;4217252;27;20091;-39
2024/04/25 03:39:46;;;;;;;4.38;0.95;;;15.50;72.00;;;;;;4194899;27;20484;-39
2024/04/25 03:42:29;;;;;;;1.45;0.70;;;15.50;72.20;;;;;;4194981;27;20047;-39
2024/04/25 03:45:11;;;;;;;3.50;0.70;;;15.60;72.20;;;;;;4210537;27;20017;-39
2024/04/25 03:47:55;;;;;;;6.88;1.05;;;15.60;72.10;;;;;;4194338;27;20064;-39
2024/04/25 03:50:37;;;;;;;3.92;0.88;;;15.60;71.90;;;;;;4220337;27;20027;-39
2024/04/25 03:53:23;;;;;;;8.93;1.25;;;15.70;71.80;;;;;;4220855;27;20024;-39
2024/04/25 03:56:06;;;;;;;2.60;0.85;;;15.70;71.80;;;;;;4201215;27;20450;-39
2024/04/25 03:58:50;;;;;;;6.05;1.00;;;15.70;72.00;;;;;;4194639;27;20031;-39
2024/04/25 04:01:33;;;;;;;2.75;0.68;;;15.70;71.80;;;;;;4194603;27;20343;-39
2024/04/25 04:04:16;;;;;;;5.45;1.00;;;15.80;71.60;;;;;;4194889;27;20343;-39
2024/04/25 04:06:58;;;;;;;2.53;0.57;;;15.80;72.40;;;;;;4211065;27;20345;-39
2024/04/25 04:09:44;;;;;;;3.97;0.90;;;15.80;71.30;;;;;;4210639;27;20087;-38
2024/04/25 04:12:27;;;;;;;4.03;1.27;;;15.80;71.20;;;;;;4212866;27;20016;-39
2024/04/25 04:15:10;;;;;;;2.65;0.98;;;15.80;71.30;;;;;;4194587;27;20092;-38
2024/04/25 04:17:53;;;;;;;2.42;0.77;;;15.80;71.50;;;;;;4194518;27;20020;-39
2024/04/25 04:20:36;;;;;;;1.30;0.70;;;15.80;71.50;;;;;;4211081;27;20017;-39
2024/04/25 04:23:18;;;;;;;3.90;1.00;;;15.80;71.40;;;;;;4194372;27;20029;-39
2024/04/25 04:26:04;;;;;;;3.10;1.20;;;15.80;71.60;;;;;;4194489;27;20054;-51
2024/04/25 04:28:47;;;;;;;5.78;1.40;;;15.80;71.60;;;;;;4219306;27;20117;-51
2024/04/25 04:31:30;;;;;;;5.53;1.10;;;15.80;71.60;;;;;;4236800;27;20020;-49
2024/04/25 04:34:13;;;;;;;5.75;1.10;;;15.80;71.60;;;;;;4220336;27;20025;-48
2024/04/25 04:36:56;;;;;;;3.63;0.88;;;15.90;71.60;;;;;;4220136;27;20050;-51
2024/04/25 04:39:38;;;;;;;5.35;0.90;;;15.90;71.50;;;;;;4219960;27;20025;-47
2024/04/25 04:42:24;;;;;;;1.90;1.17;;;15.80;71.60;;;;;;4219959;27;20028;-52
2024/04/25 04:45:07;;;;;;;4.43;1.15;;;15.80;71.80;;;;;;4194017;27;20458;-50
2024/04/25 04:47:51;;;;;;;5.32;0.88;;;15.80;71.90;;;;;;4193535;27;20449;-48
2024/04/25 04:50:34;;;;;;;4.25;1.00;;;15.90;71.60;;;;;;4193759;27;20528;-48
2024/04/25 04:53:16;;;;;;;5.43;1.33;;;15.90;71.50;;;;;;4210578;27;20047;-52
2024/04/25 04:55:59;;;;;;;2.05;0.95;;;16.00;71.50;;;;;;4218904;27;20021;-52
2024/04/25 04:58:46;;;;;;;2.78;0.90;;;15.90;72.20;;;;;;4236885;27;20016;-50
2024/04/25 05:01:29;;;;;;;3.28;0.90;;;16.00;71.30;;;;;;4194039;27;20021;-51
2024/04/25 05:04:12;;;;;;;10.40;1.00;;;15.90;71.40;;;;;;4213225;27;20021;-52
2024/04/25 05:06:54;;;;;;;4.20;1.23;;;15.90;71.80;;;;;;4219763;27;20407;-52
2024/04/25 05:09:37;;;;;;;5.25;1.38;;;16.00;71.90;;;;;;4219741;27;20346;-52
2024/04/25 05:12:20;;;;;;;2.55;1.23;;;16.00;71.70;;;;;;4219087;27;20415;-49
2024/04/25 05:15:06;;;;;;;3.15;1.08;;;16.00;71.80;;;;;;4219358;27;20025;-50
2024/04/25 05:17:49;;;;;;;2.65;1.27;;;16.00;71.80;;;;;;4222173;27;20082;-48
2024/04/25 05:20:32;;;;;;;4.13;1.27;;;16.00;71.80;;;;;;4222600;27;20120;-48
2024/04/25 05:23:15;;;;;;;2.55;0.93;;;16.00;72.00;;;;;;4222424;27;20021;-48
2024/04/25 05:25:58;;;;;;;1.10;0.80;;;16.00;72.00;;;;;;4222360;27;20028;-48
2024/04/25 05:28:41;;;;;;;3.25;0.85;;;15.90;71.90;;;;;;4220488;27;20017;-51
2024/04/25 05:31:26;;;;;;;6.10;0.98;;;15.90;72.00;;;;;;4217938;27;20023;-52
2024/04/25 05:34:09;;;;;;;3.60;1.00;;;15.90;72.20;;;;;;4196105;27;20029;-51
2024/04/25 05:36:52;;;;;;;4.88;1.05;;;15.90;72.60;;;;;;4193883;27;20074;-49
2024/04/25 05:39:34;;;;;;;4.40;1.40;;;15.90;72.50;;;;;;4219699;27;20021;-48
2024/04/25 05:42:17;;;;;;;6.32;1.05;;;16.00;72.40;;;;;;4221685;27;20028;-48
2024/04/25 05:45:00;;;;;;;7.18;1.50;;;16.00;72.30;;;;;;4196007;27;20026;-50
2024/04/25 05:47:46;;;;;;;2.55;1.00;;;16.00;72.10;;;;;;4212825;27;20025;-48
2024/04/25 05:50:29;;;;;;;6.10;0.82;;;16.00;71.80;;;;;;4195947;27;20026;-51
2024/04/25 05:53:12;;;;;;;3.95;1.00;;;16.00;71.80;;;;;;4207092;27;20021;-49
2024/04/25 05:55:54;;;;;;;5.53;1.00;;;16.00;71.80;;;;;;4219963;27;20094;-51
2024/04/25 05:58:39;;;;;;;6.22;1.30;;;16.00;72.00;;;;;;4222018;27;20020;-49
2024/04/25 06:01:21;;;;;;;6.43;1.00;;;16.10;72.10;;;;;;4195666;27;20060;-47
2024/04/25 06:04:07;;;;;;;4.88;1.08;;;16.10;72.00;;;;;;4196086;27;20576;-48
2024/04/25 06:06:50;;;;;;;3.97;1.20;;;16.10;71.60;;;;;;4195893;27;20353;-49
2024/04/25 06:09:33;;;;;;;3.72;1.00;;;16.10;71.50;;;;;;4196112;27;20091;-50
2024/04/25 06:12:16;;;;;;;2.47;1.00;;;16.20;71.80;;;;;;4196660;27;20382;-49
2024/04/25 06:14:59;;;;;;;4.78;1.60;;;16.20;72.10;;;;;;4205830;27;20025;-49
2024/04/25 06:17:42;;;;;;;6.40;1.70;;;16.30;73.40;;;;;;4219681;27;20021;-51
2024/04/25 06:20:28;;;;;;;5.43;1.33;;;16.30;73.20;;;;;;4221223;27;20021;-50
2024/04/25 06:23:11;;;;;;;7.00;1.95;;;16.30;72.30;;;;;;4206708;27;20024;-48
2024/04/25 06:25:54;;;;;;;3.13;0.75;;;16.30;72.10;;;;;;4221797;27;20449;-52
2024/04/25 06:28:38;;;;;;;2.92;1.17;;;16.30;71.50;;;;;;4221596;27;20044;-48
2024/04/25 06:31:22;;;;;;;4.88;1.33;;;16.30;70.70;;;;;;4221666;27;20024;-49
2024/04/25 06:34:09;;;;;;;4.90;1.13;;;16.20;70.20;;;;;;4236723;27;20066;-47
2024/04/25 06:36:56;;;;;;;2.78;1.10;;;16.10;70.10;;;;;;4195331;27;20091;-49
2024/04/25 06:39:39;;;;;;;5.13;1.35;;;16.10;70.50;;;;;;4196882;27;20499;-50
2024/04/25 06:42:22;;;;;;;6.95;1.52;;;16.20;70.70;;;;;;4219942;27;20056;-49
2024/04/25 06:45:05;;;;;;;5.05;1.10;;;16.20;70.60;;;;;;4214014;27;20024;-49
2024/04/25 06:47:48;;;;;;;5.63;1.20;;;16.20;69.70;;;;;;4195540;27;20025;-49
2024/04/25 06:50:31;;;;;;;3.90;1.17;;;16.20;69.10;;;;;;4205814;27;20091;-48
2024/04/25 06:53:16;;;;;;;4.28;1.05;;;16.20;69.00;;;;;;4209099;27;20407;-53
2024/04/25 06:55:59;;;;;;;6.13;1.25;;;16.20;69.00;;;;;;4220566;27;20025;-52
2024/04/25 06:58:42;;;;;;;2.67;0.90;;;16.10;69.00;;;;;;4218739;27;20078;-49
2024/04/25 07:01:25;;;;;;;3.50;1.20;;;16.10;68.50;;;;;;4220966;27;20179;-48
2024/04/25 07:04:08;;;;;;;9.73;1.65;;;16.10;68.60;;;;;;4208339;27;20027;-48
2024/04/25 07:06:51;;;;;;;7.05;1.10;;;16.00;68.30;;;;;;4206223;27;20026;-38
2024/04/25 07:09:37;;;;;;;4.80;1.45;;;15.90;68.10;;;;;;4195745;27;20029;-49
2024/04/25 07:12:20;;;;;;;6.68;1.40;;;15.90;67.80;;;;;;4195475;27;20090;-49
2024/04/25 07:15:06;;;;;;;6.72;1.20;;;15.90;68.00;;;;;;4194691;27;20026;-49
2024/04/25 07:17:49;;;;;;;5.53;1.42;;;15.90;68.10;;;;;;4195170;27;20047;-48
2024/04/25 07:20:32;;;;;;;6.60;1.10;;;15.90;68.60;;;;;;4194391;27;20029;-49
2024/04/25 07:23:15;;;;;;;4.80;1.17;;;15.80;68.80;;;;;;4205673;27;20090;-49
2024/04/25 07:26:00;;;;;;;4.10;0.98;;;15.80;69.50;;;;;;4214614;27;20028;-48
2024/04/25 07:28:43;;;;;;;5.68;1.30;;;15.70;69.50;;;;;;4202187;27;20090;-48
2024/04/25 07:31:26;;;;;;;4.65;1.75;;;15.70;70.00;;;;;;4234133;27;20020;-48
2024/04/25 07:34:09;;;;;;;7.68;1.25;;;15.70;70.50;;;;;;4216227;27;20051;-48
2024/04/25 07:36:52;;;;;;;4.03;1.08;;;15.60;70.40;;;;;;4217071;27;20056;-49
2024/04/25 07:39:35;;;;;;;4.30;0.90;;;15.60;70.70;;;;;;4234166;27;20094;-50
2024/04/25 07:42:21;;;;;;;4.10;1.08;;;15.60;71.20;;;;;;4217338;27;20025;-48
2024/04/25 07:45:03;;;;;;;2.00;0.77;;;15.60;71.40;;;;;;4217485;27;20032;-49
2024/04/25 07:47:47;;;;;;;2.83;1.17;;;15.60;70.80;;;;;;4217178;27;20016;-38
2024/04/25 07:50:29;;;;;;;4.00;1.35;;;15.50;69.90;;;;;;4216849;27;20086;-38
2024/04/25 07:53:12;;;;;;;5.55;1.17;;;15.50;69.70;;;;;;4217297;27;20082;-48
2024/04/25 07:55:55;;;;;;;1.80;0.80;;;15.50;69.20;;;;;;4216149;27;20070;-39
2024/04/25 07:58:41;;;;;;;3.53;1.15;;;15.50;68.90;;;;;;4216300;27;20510;-38
2024/04/25 08:01:23;;;;;;;3.30;0.98;;;15.50;68.60;;;;;;4216969;27;20025;-38
2024/04/25 08:04:07;;;;;;;6.43;1.08;;;15.50;68.30;;;;;;4215227;27;20020;-38
2024/04/25 08:06:50;;;;;;;4.70;1.10;;;15.50;68.00;;;;;;4216935;27;20058;-38
2024/04/25 08:09:34;;;;;;;2.33;1.13;;;15.50;67.70;;;;;;4217505;27;20025;-38
2024/04/25 08:12:17;;;;;;;4.72;0.88;;;15.50;67.40;;;;;;4216837;27;20020;-38
2024/04/25 08:15:03;;;;;;;3.75;1.02;;;15.50;67.40;;;;;;4217468;27;20090;-38
2024/04/25 08:17:48;;;;;;;4.20;1.10;;;15.50;67.70;;;;;;4216347;27;20108;-38
2024/04/25 08:20:31;;;;;;;5.40;0.98;;;15.50;67.50;;;;;;4216829;27;20357;-38
2024/04/25 08:23:14;;;;;;;2.55;1.48;;;15.40;67.00;;;;;;4216328;27;20099;-38
2024/04/25 08:25:57;;;;;;;5.43;1.13;;;15.40;66.50;;;;;;4216924;27;20024;-38
2024/04/25 08:28:39;;;;;;;3.13;1.10;;;15.40;66.30;;;;;;4215844;27;20016;-38
2024/04/25 08:31:25;;;;;;;3.42;1.05;;;15.40;66.10;;;;;;4216562;27;20024;-38
2024/04/25 08:34:08;;;;;;;2.05;0.77;;;15.40;66.10;;;;;;4216970;27;20059;-38
2024/04/25 08:36:51;;;;;;;5.57;1.00;;;15.40;66.10;;;;;;4216530;27;20477;-38
2024/04/25 08:39:34;;;;;;;4.65;0.93;;;15.30;65.70;;;;;;4216035;27;20468;-38
2024/04/25 08:42:21;;;;;;;4.57;1.38;;;15.30;65.40;;;;;;4232912;27;20471;-38
2024/04/25 08:45:05;;;;;;;3.58;1.00;;;15.30;65.40;;;;;;4216852;27;20514;-39
2024/04/25 08:47:53;;;;;;;7.22;1.38;;;15.30;65.40;;;;;;4214219;27;20024;-38
2024/04/25 08:50:38;;;;;;;6.65;1.25;;;15.30;65.20;;;;;;4217974;27;20042;-38
2024/04/25 08:53:23;;;;;;;5.55;1.50;;;15.20;65.20;;;;;;4219083;27;20028;-38
2024/04/25 08:56:09;;;;;;;3.17;1.00;;;15.20;65.30;;;;;;4218191;27;20100;-38
2024/04/25 08:58:52;;;;;;;2.10;0.90;;;15.20;65.30;;;;;;4219340;27;20474;-38
2024/04/25 09:01:36;;;;;;;2.50;0.93;;;15.20;65.50;;;;;;4218270;27;20063;-38
2024/04/25 09:04:25;;;;;;;2.70;0.93;;;15.20;65.50;;;;;;4219028;27;20021;-38
2024/04/25 09:07:12;;;;;;;6.13;1.48;;;15.20;65.40;;;;;;4218381;27;20092;-38
2024/04/25 09:09:56;;;;;;;5.85;0.98;;;15.20;65.00;;;;;;4219058;27;20020;-38
2024/04/25 09:12:39;;;;;;;2.28;0.68;;;15.20;64.70;;;;;;4218791;27;20063;-37
2024/04/25 09:15:25;;;;;;;2.15;0.80;;;15.20;64.70;;;;;;4218821;27;20029;-38
2024/04/25 09:18:09;;;;;;;5.45;1.08;;;15.20;64.90;;;;;;4218236;27;20017;-38
2024/04/25 09:20:55;;;;;;;3.20;0.85;;;15.20;65.40;;;;;;4217715;27;20487;-38
2024/04/25 09:23:42;;;;;;;5.95;1.10;;;15.20;65.70;;;;;;4196412;27;20350;-37
2024/04/25 09:26:28;;;;;;;3.25;1.40;;;15.20;65.90;;;;;;4201093;27;20090;-38
2024/04/25 09:29:12;;;;;;;5.45;1.17;;;15.20;66.30;;;;;;4199721;27;20029;-38
2024/04/25 09:31:57;;;;;;;4.25;1.48;;;15.20;66.30;;;;;;4180187;27;20092;-38
2024/04/25 09:34:39;;;;;;;3.90;1.23;;;15.20;66.10;;;;;;4202650;27;20017;-38
2024/04/25 09:37:25;;;;;;;2.70;0.60;;;15.20;66.50;;;;;;4219950;27;20016;-38
2024/04/25 09:40:10;;;;;;;6.00;1.38;;;15.20;66.70;;;;;;4222192;27;20086;-38
2024/04/25 09:42:52;;;;;;;2.15;0.90;;;15.20;67.00;;;;;;4220461;27;20083;-38
2024/04/25 09:45:38;;;;;;;4.93;1.23;;;15.20;66.80;;;;;;4222300;27;20056;-38
2024/04/25 09:48:23;;;;;;;7.55;0.90;;;15.20;66.80;;;;;;4221851;27;20457;-38
2024/04/25 09:51:11;;;;;;;3.03;1.30;;;15.20;67.20;;;;;;4221557;27;20086;-38
2024/04/25 09:54:01;;;;;;;3.55;0.85;;;15.20;67.10;;;;;;4212575;27;20086;-38
2024/04/25 09:56:46;;;;;;;3.25;1.38;;;15.20;67.50;;;;;;4196079;27;20025;-38
2024/04/25 09:59:39;;;;;;;1.15;1.00;;;15.20;68.70;;;;;;4195869;27;20087;-37
2024/04/25 10:02:23;;;;;;;2.08;0.82;;;15.20;67.30;;;;;;4195013;27;20025;-38
2024/04/25 10:05:06;;;;;;;5.22;0.90;;;15.30;67.80;;;;;;4195900;27;20025;-38
2024/04/25 10:07:51;;;;;;;2.65;0.95;;;15.30;68.10;;;;;;4213915;27;20016;-38
2024/04/25 10:10:37;;;;;;;3.75;0.90;;;15.30;68.30;;;;;;4221550;27;20025;-38
2024/04/25 10:13:19;;;;;;;1.98;1.00;;;15.40;68.10;;;;;;4221748;27;20021;-38
2024/04/25 10:16:03;;;;;;;4.93;1.13;;;15.40;68.20;;;;;;4221784;27;20421;-38
2024/04/25 10:18:49;;;;;;;4.72;1.30;;;15.40;68.20;;;;;;4221535;27;20097;-38
2024/04/25 10:21:33;;;;;;;4.22;1.50;;;15.50;68.20;;;;;;4222104;27;20024;-38
2024/04/25 10:24:16;;;;;;;7.03;1.25;;;15.50;67.90;;;;;;4219645;27;20017;-39
2024/04/25 10:27:11;;;;;;;5.95;1.30;;;15.60;67.70;;;;;;4221625;27;20047;-38
2024/04/25 10:29:55;;;;;;;6.75;1.48;;;15.60;67.50;;;;;;4218770;27;20020;-38
2024/04/25 10:32:37;;;;;;;5.47;1.23;;;15.60;67.90;;;;;;4221652;27;20021;-38
2024/04/25 10:35:21;;;;;;;2.83;1.08;;;15.70;67.90;;;;;;4220680;27;20066;-38
2024/04/25 10:38:05;;;;;;;1.58;0.88;;;15.70;67.90;;;;;;4220484;27;20099;-50
2024/04/25 10:40:47;;;;;;;2.33;0.60;;;15.80;67.90;;;;;;4206046;27;20017;-51
2024/04/25 10:43:44;;;;;;;3.13;1.33;;;15.90;67.80;;;;;;4195657;27;20046;-51
2024/04/25 10:46:27;;;;;;;1.75;0.63;;;15.90;67.40;;;;;;4194477;27;20021;-50
2024/04/25 10:49:11;;;;;;;3.63;1.13;;;16.00;67.40;;;;;;4195557;27;20018;-48
2024/04/25 10:51:54;;;;;;;1.33;0.80;;;16.00;67.30;;;;;;4195439;27;20342;-52
2024/04/25 10:54:37;;;;;;;4.22;0.80;;;16.00;67.00;;;;;;4206783;27;20024;-51
2024/04/25 10:57:20;;;;;;;2.08;0.77;;;16.00;66.90;;;;;;4221646;27;20016;-51
2024/04/25 11:00:06;;;;;;;2.10;1.00;;;16.10;67.10;;;;;;4221257;27;20028;-51
2024/04/25 11:02:53;;;;;;;1.00;0.73;;;16.10;67.30;;;;;;4220520;27;20024;-49
2024/04/25 11:05:40;;;;;;;3.88;0.80;;;16.10;67.20;;;;;;4220792;27;20341;-49
2024/04/25 11:08:23;;;;;;;2.90;1.00;;;16.10;67.30;;;;;;4212500;27;20512;-52
2024/04/25 11:11:07;;;;;;;1.20;0.70;;;16.10;67.50;;;;;;4195059;27;20018;-49
2024/04/25 11:13:51;;;;;;;4.70;0.90;;;16.10;67.50;;;;;;4194600;27;20021;-51
2024/04/25 11:16:40;;;;;;;1.50;0.60;;;16.20;67.60;;;;;;4194651;27;20396;-50
2024/04/25 11:19:23;;;;;;;3.58;1.00;;;16.10;67.60;;;;;;4194856;27;20025;-51
2024/04/25 11:22:10;;;;;;;4.75;1.20;;;16.20;67.70;;;;;;4195545;27;20343;-50
2024/04/25 11:24:56;;;;;;;1.85;0.73;;;16.20;67.70;;;;;;4197757;27;20013;-50
2024/04/25 11:27:39;;;;;;;0.95;0.60;;;16.20;67.60;;;;;;4212062;27;20364;-48
2024/04/25 11:30:22;;;;;;;1.80;0.70;;;16.20;67.60;;;;;;4194887;27;20371;-49
2024/04/25 11:33:08;;;;;;;1.75;0.70;;;16.20;67.50;;;;;;4195407;27;20047;-50
2024/04/25 11:35:51;;;;;;;0.95;0.50;;;16.20;67.40;;;;;;4195118;27;20482;-50
2024/04/25 11:38:33;;;;;;;3.50;1.10;;;16.20;67.60;;;;;;4210127;27;20020;-50
2024/04/25 11:41:17;;;;;;;3.35;0.88;;;16.20;67.70;;;;;;4220934;27;20025;-48
2024/04/25 11:44:00;;;;;;;1.33;0.70;;;16.20;67.50;;;;;;4221134;27;20407;-49
2024/04/25 11:46:43;;;;;;;3.63;0.80;;;16.20;68.20;;;;;;4220836;27;20456;-50
2024/04/25 11:49:29;;;;;;;1.55;0.70;;;16.20;67.40;;;;;;4221185;27;20041;-51
2024/04/25 11:52:14;;;;;;;2.25;0.70;;;16.20;67.00;;;;;;4200601;27;20357;-52
2024/04/25 11:54:56;;;;;;;4.97;1.15;;;16.20;67.00;;;;;;4194832;27;20042;-49
2024/04/25 11:57:39;;;;;;;1.00;0.77;;;16.20;66.60;;;;;;4194974;27;20042;-50
2024/04/25 12:00:22;;;;;;;2.97;0.82;;;16.20;66.60;;;;;;4194518;27;20025;-50
2024/04/25 12:03:05;;;;;;;0.50;0.50;;;16.20;66.60;;;;;;4194784;27;20025;-52
2024/04/25 12:05:50;;;;;;;1.90;0.73;;;16.20;66.70;;;;;;4208890;27;20051;-49
2024/04/25 12:08:33;;;;;;;2.72;1.20;;;16.20;66.60;;;;;;4220481;27;20472;-52
2024/04/25 12:11:17;;;;;;;2.42;1.20;;;16.20;66.80;;;;;;4214140;27;20094;-49
2024/04/25 12:13:59;;;;;;;1.92;1.20;;;16.20;66.80;;;;;;4193929;27;20398;-49
2024/04/25 12:16:42;;;;;;;3.50;1.25;;;16.20;66.80;;;;;;4218209;27;20025;-47
2024/04/25 12:19:25;;;;;;;3.88;1.45;;;16.20;67.70;;;;;;4220135;27;20020;-50
2024/04/25 12:22:10;;;;;;;3.40;1.38;;;16.20;66.80;;;;;;4217205;27;20314;-49
2024/04/25 12:24:53;;;;;;;4.22;1.50;;;16.20;66.80;;;;;;4220137;27;20033;-51
2024/04/25 12:27:36;;;;;;;6.65;1.40;;;16.20;66.60;;;;;;4222663;27;20046;-47
2024/04/25 12:30:19;;;;;;;2.60;1.35;;;16.20;66.90;;;;;;4223026;27;20020;-48
2024/04/25 12:33:02;;;;;;;7.43;1.65;;;16.30;66.90;;;;;;4221236;27;20061;-47
2024/04/25 12:35:45;;;;;;;2.25;1.52;;;16.30;67.30;;;;;;4222739;27;20345;-48
2024/04/25 12:38:30;;;;;;;4.47;1.48;;;16.30;67.70;;;;;;4220773;27;20071;-48
2024/04/25 12:41:13;;;;;;;4.30;1.75;;;16.30;67.60;;;;;;4223079;27;20024;-48
2024/04/25 12:43:56;;;;;;;4.38;1.52;;;16.30;68.00;;;;;;4222590;27;20024;-48
2024/04/25 12:46:41;;;;;;;2.60;1.65;;;16.30;67.90;;;;;;4219837;27;20090;-48
2024/04/25 12:49:35;;;;;;;1.23;1.08;;;16.30;68.10;;;;;;4222661;27;20017;-49
2024/04/25 12:52:18;;;;;;;5.13;1.40;;;16.30;67.80;;;;;;4222319;27;20057;-48
2024/04/25 12:55:04;;;;;;;2.20;1.33;;;16.20;67.90;;;;;;4222538;27;20089;-49
2024/04/25 12:57:49;;;;;;;4.32;1.70;;;16.20;68.10;;;;;;4221526;27;20042;-50
2024/04/25 13:00:31;;;;;;;2.58;1.30;;;16.20;68.10;;;;;;4221713;27;20430;-50
2024/04/25 13:03:14;;;;;;;2.78;1.20;;;16.20;68.10;;;;;;4219497;27;20086;-38
2024/04/25 13:05:57;;;;;;;2.97;1.30;;;16.20;68.10;;;;;;4221963;27;20016;-48
2024/04/25 13:08:41;;;;;;;3.08;1.58;;;16.20;68.00;;;;;;4222515;27;20045;-50
2024/04/25 13:11:27;;;;;;;2.45;1.40;;;16.10;68.20;;;;;;4222108;27;20021;-51
2024/04/25 13:14:11;;;;;;;6.00;1.92;;;16.10;68.30;;;;;;4222731;27;20021;-50
2024/04/25 13:16:54;;;;;;;1.67;1.02;;;16.10;68.30;;;;;;4221567;27;20089;-48
2024/04/25 13:19:36;;;;;;;3.95;1.20;;;16.10;68.50;;;;;;4217955;27;20024;-47
2024/04/25 13:22:19;;;;;;;4.47;1.23;;;16.10;69.40;;;;;;4212050;27;20477;-48
2024/04/25 13:25:02;;;;;;;2.13;0.77;;;16.10;68.60;;;;;;4220916;27;20021;-50
2024/04/25 13:27:47;;;;;;;2.63;0.90;;;16.10;68.40;;;;;;4216975;27;20082;-48
2024/04/25 13:30:31;;;;;;;4.07;0.80;;;16.10;68.20;;;;;;4197776;27;20021;-48
2024/04/25 13:33:14;;;;;;;2.38;1.23;;;16.10;68.10;;;;;;4245690;27;20082;-50
2024/04/25 13:35:57;;;;;;;1.83;1.00;;;16.00;68.20;;;;;;4222020;27;20407;-48
2024/04/25 13:38:41;;;;;;;1.98;1.05;;;16.10;68.10;;;;;;4222278;27;20344;-52
2024/04/25 13:41:25;;;;;;;1.25;1.15;;;16.10;67.90;;;;;;4220648;27;20524;-51
2024/04/25 13:44:10;;;;;;;4.88;1.05;;;16.10;67.60;;;;;;4222672;27;20050;-47
2024/04/25 13:46:55;;;;;;;1.38;0.90;;;16.10;67.10;;;;;;4221727;27;20025;-50
2024/04/25 13:49:38;;;;;;;1.35;0.70;;;16.10;67.10;;;;;;4220208;27;20086;-47
2024/04/25 13:52:20;;;;;;;6.80;1.02;;;16.20;66.60;;;;;;4221599;27;20025;-52
2024/04/25 13:55:03;;;;;;;3.47;1.08;;;16.20;66.50;;;;;;4221959;27;20025;-48
2024/04/25 13:57:46;;;;;;;1.63;1.00;;;16.20;66.40;;;;;;4224488;27;20020;-48
2024/04/25 14:00:31;;;;;;;2.10;0.90;;;16.10;66.50;;;;;;4222092;27;20021;-48
2024/04/25 14:03:15;;;;;;;4.18;1.33;;;16.20;66.50;;;;;;4220978;27;20102;-47
2024/04/25 14:05:57;;;;;;;2.65;1.45;;;16.10;66.50;;;;;;4221139;27;20089;-50
2024/04/25 14:08:40;;;;;;;3.38;1.10;;;16.10;66.50;;;;;;4200917;27;20177;-49
2024/04/25 14:11:23;;;;;;;1.67;1.10;;;16.10;66.80;;;;;;4217672;27;20435;-49
2024/04/25 14:14:08;;;;;;;1.10;0.90;;;16.10;66.90;;;;;;4214423;27;20411;-50
2024/04/25 14:16:53;;;;;;;1.95;0.93;;;16.10;66.80;;;;;;4221766;27;20175;-49
2024/04/25 14:19:36;;;;;;;1.75;0.95;;;16.10;66.60;;;;;;4221781;27;20082;-38